| time (UTC) | temp C | wind direction | speed KPH | gust KPH | rain 1hr cm | rain 24hr cm | rain mn cm | humidity % | barometer mb |
| 20260503034242 | 23 | 246 | 11.3 | 16.1 | 0.10 | 0.84 | 0.84 | 90 | 1014.3 |
| 20260503033742 | 23 | 234 | 6.4 | 16.1 | 0.10 | 0.84 | 0.84 | 90 | 1014.3 |
| 20260503033242 | 22 | 252 | 6.4 | 11.3 | 0.10 | 0.81 | 0.81 | 90 | 1014.1 |
| 20260503032742 | 22 | 271 | 4.8 | 11.3 | 0.10 | 0.81 | 0.81 | 89 | 1013.9 |
| 20260503032242 | 22 | 259 | 4.8 | 11.3 | 0.13 | 0.81 | 0.81 | 89 | 1013.9 |
| 20260503031742 | 22 | 244 | 11.3 | 12.9 | 0.13 | 0.81 | 0.81 | 89 | 1013.3 |
| 20260503031242 | 22 | 251 | 3.2 | 12.9 | 0.15 | 0.81 | 0.81 | 89 | 1013.0 |
| 20260503030242 | 22 | 195 | 4.8 | 17.7 | 0.30 | 0.81 | 0.81 | 89 | 1012.2 |
| 20260503025742 | 22 | 223 | 8.0 | 17.7 | 0.30 | 0.79 | 0.79 | 89 | 1012.6 |
| 20260503024242 | 22 | 201 | 4.8 | 12.9 | 0.25 | 0.74 | 0.74 | 89 | 1012.7 |
| 20260503023742 | 22 | 219 | 6.4 | 9.7 | 0.25 | 0.74 | 0.74 | 89 | 1013.1 |
| 20260503023242 | 22 | 190 | 4.8 | 8.0 | 0.23 | 0.71 | 0.71 | 89 | 1013.2 |
| 20260503022242 | 22 | 213 | 1.6 | 12.9 | 0.20 | 0.69 | 0.69 | 89 | 1013.1 |
| 20260503021742 | 22 | 235 | 8.0 | 12.9 | 0.20 | 0.69 | 0.69 | 89 | 1013.3 |
| 20260503021242 | 22 | 229 | 8.0 | 11.3 | 0.18 | 0.66 | 0.66 | 89 | 1013.5 |
| 20260503020242 | 22 | 265 | 9.7 | 9.7 | 0.10 | 0.51 | 0.51 | 89 | 1013.9 |
| 20260503015242 | 22 | 277 | 0.0 | 4.8 | 0.13 | 0.48 | 0.48 | 89 | 1013.2 |
| 20260503014742 | 22 | 284 | 3.2 | 4.8 | 0.13 | 0.48 | 0.48 | 89 | 1013.3 |
| 20260503014242 | 22 | 271 | 3.2 | 4.8 | 0.13 | 0.48 | 0.48 | 89 | 1013.1 |
| 20260503013742 | 22 | 170 | 0.0 | 0.0 | 0.13 | 0.48 | 0.48 | 89 | 1013.0 |
| 20260503013242 | 22 | 170 | 0.0 | 3.2 | 0.13 | 0.48 | 0.48 | 89 | 1012.7 |
| 20260503012742 | 22 | 175 | 0.0 | 6.4 | 0.13 | 0.48 | 0.48 | 89 | 1012.7 |
| 20260503012242 | 22 | 176 | 0.0 | 6.4 | 0.13 | 0.48 | 0.48 | 89 | 1012.8 |
| 20260503011742 | 23 | 189 | 1.6 | 6.4 | 0.15 | 0.48 | 0.48 | 90 | 1012.9 |
| 20260503011242 | 23 | 196 | 0.0 | 6.4 | 0.18 | 0.48 | 0.48 | 89 | 1012.9 |
| 20260503010742 | 23 | 166 | 0.0 | 3.2 | 0.20 | 0.46 | 0.46 | 90 | 1013.0 |
| 20260503010242 | 23 | 143 | 1.6 | 6.4 | 0.18 | 0.41 | 0.41 | 89 | 1012.9 |
| 20260503004741 | 23 | 225 | 0.0 | 4.8 | 0.18 | 0.36 | 0.36 | 90 | 1012.9 |
| 20260503004242 | 23 | 199 | 0.0 | 0.0 | 0.18 | 0.36 | 0.36 | 90 | 1013.1 |
| 20260503003741 | 23 | 141 | 0.0 | 1.6 | 0.18 | 0.36 | 0.36 | 89 | 1012.8 |
| 20260503003242 | 23 | 141 | 0.0 | 1.6 | 0.18 | 0.36 | 0.36 | 89 | 1012.6 |
| 20260503002742 | 23 | 141 | 0.0 | 4.8 | 0.18 | 0.36 | 0.36 | 89 | 1012.6 |
| 20260503002241 | 23 | 141 | 0.0 | 4.8 | 0.18 | 0.36 | 0.36 | 89 | 1012.5 |
| 20260503001742 | 23 | 156 | 1.6 | 3.2 | 0.15 | 0.33 | 0.33 | 89 | 1012.5 |
| 20260503001241 | 23 | 152 | 0.0 | 9.7 | 0.13 | 0.30 | 0.30 | 89 | 1012.3 |
| 20260503000242 | 23 | 267 | 9.7 | 11.3 | 0.05 | 0.23 | 0.23 | 88 | 1012.9 |
| 20260502235741 | 23 | 267 | 1.6 | 12.9 | 0.03 | 0.20 | 0.20 | 88 | 1012.6 |
| 20260502235241 | 23 | 264 | 9.7 | 12.9 | 0.03 | 0.20 | 0.20 | 88 | 1012.8 |
| 20260502234741 | 23 | 248 | 3.2 | 11.3 | 0.00 | 0.18 | 0.18 | 88 | 1012.6 |
| 20260502234241 | 23 | 293 | 8.0 | 9.7 | 0.05 | 0.18 | 0.18 | 88 | 1012.6 |
| 20260502232741 | 23 | 301 | 0.0 | 11.3 | 0.18 | 0.18 | 0.18 | 88 | 1012.5 |
| 20260502232241 | 23 | 292 | 6.4 | 11.3 | 0.18 | 0.18 | 0.18 | 87 | 1012.4 |
| 20260502231741 | 23 | 339 | 3.2 | 9.7 | 0.18 | 0.18 | 0.18 | 87 | 1012.5 |
| 20260502230741 | 23 | 323 | 1.6 | 12.9 | 0.18 | 0.18 | 0.18 | 86 | 1012.4 |
| 20260502230241 | 23 | 315 | 1.6 | 17.7 | 0.18 | 0.18 | 0.18 | 85 | 1012.4 |
| 20260502225741 | 23 | 303 | 6.4 | 17.7 | 0.18 | 0.18 | 0.18 | 84 | 1012.4 |
| 20260502225241 | 23 | 316 | 4.8 | 19.3 | 0.18 | 0.18 | 0.18 | 83 | 1012.1 |
| 20260502224741 | 23 | 335 | 6.4 | 30.6 | 0.18 | 0.18 | 0.18 | 81 | 1012.1 |
| 20260502224241 | 25 | 310 | 12.9 | 30.6 | 0.13 | 0.13 | 0.13 | 78 | 1012.1 |
| 20260502223741 | 26 | 317 | 25.7 | 33.8 | 0.00 | 0.00 | 0.00 | 77 | 1012.0 |
| 20260502223241 | 27 | 300 | 17.7 | 33.8 | 0.00 | 0.00 | 0.00 | 81 | 1011.8 |
| 20260502222741 | 27 | 230 | 14.5 | 24.1 | 0.00 | 0.00 | 0.00 | 83 | 1011.1 |
| 20260502222241 | 27 | 218 | 12.9 | 24.1 | 0.00 | 0.00 | 0.00 | 83 | 1011.1 |
| 20260502221741 | 27 | 240 | 12.9 | 20.9 | 0.00 | 0.00 | 0.00 | 83 | 1011.0 |
| 20260502221241 | 27 | 242 | 14.5 | 22.5 | 0.00 | 0.00 | 0.00 | 83 | 1011.0 |
| 20260502220741 | 27 | 268 | 12.9 | 22.5 | 0.00 | 0.00 | 0.00 | 83 | 1011.0 |
| 20260502220241 | 27 | 225 | 8.0 | 19.3 | 0.00 | 0.00 | 0.00 | 82 | 1011.1 |
| 20260502215241 | 27 | 224 | 12.9 | 24.1 | 0.00 | 0.00 | 0.00 | 81 | 1011.1 |
| 20260502214741 | 27 | 245 | 17.7 | 24.1 | 0.00 | 0.00 | 0.00 | 80 | 1011.2 |
| 20260502214241 | 27 | 232 | 9.7 | 24.1 | 0.00 | 0.00 | 0.00 | 81 | 1011.2 |
| 20260502213240 | 27 | 252 | 17.7 | 24.1 | 0.00 | 0.00 | 0.00 | 80 | 1011.1 |
| 20260502212741 | 27 | 227 | 11.3 | 22.5 | 0.00 | 0.00 | 0.00 | 79 | 1011.0 |
| 20260502212241 | 27 | 249 | 16.1 | 22.5 | 0.00 | 0.00 | 0.00 | 79 | 1010.9 |
| 20260502211741 | 27 | 219 | 19.3 | 22.5 | 0.00 | 0.00 | 0.00 | 79 | 1010.8 |
| 20260502211241 | 27 | 275 | 16.1 | 22.5 | 0.00 | 0.00 | 0.00 | 78 | 1010.8 |
| 20260502210241 | 28 | 252 | 19.3 | 22.5 | 0.00 | 0.00 | 0.00 | 79 | 1010.7 |
| 20260502205241 | 28 | 211 | 16.1 | 24.1 | 0.00 | 0.00 | 0.00 | 77 | 1010.7 |
| 20260502204741 | 28 | 200 | 11.3 | 20.9 | 0.00 | 0.00 | 0.00 | 75 | 1010.7 |
| 20260502204240 | 28 | 225 | 11.3 | 24.1 | 0.00 | 0.00 | 0.00 | 75 | 1010.7 |
| 20260502203740 | 28 | 249 | 8.0 | 25.7 | 0.00 | 0.00 | 0.00 | 75 | 1010.6 |
| 20260502203241 | 28 | 231 | 24.1 | 25.7 | 0.00 | 0.00 | 0.00 | 73 | 1010.6 |
| 20260502202810 | 28 | 239 | 8.0 | 25.7 | 0.00 | 0.00 | 0.00 | 74 | 1010.7 |
| 20260502201810 | 28 | 243 | 17.7 | 20.9 | 0.00 | 0.00 | 0.00 | 74 | 1010.8 |
| 20260502201310 | 28 | 228 | 19.3 | 27.4 | 0.00 | 0.00 | 0.00 | 73 | 1010.8 |
| 20260502200810 | 28 | 251 | 19.3 | 27.4 | 0.00 | 0.00 | 0.00 | 72 | 1010.7 |
| 20260502200310 | 28 | 260 | 9.7 | 24.1 | 0.00 | 0.00 | 0.00 | 74 | 1010.7 |
| 20260502195310 | 28 | 233 | 16.1 | 24.1 | 0.00 | 0.00 | 0.00 | 73 | 1010.5 |
| 20260502194810 | 28 | 230 | 17.7 | 27.4 | 0.00 | 0.00 | 0.00 | 74 | 1010.5 |
| 20260502194310 | 28 | 232 | 8.0 | 27.4 | 0.00 | 0.00 | 0.00 | 73 | 1010.5 |
| 20260502193810 | 29 | 241 | 14.5 | 24.1 | 0.00 | 0.00 | 0.00 | 73 | 1010.6 |
| 20260502192810 | 28 | 219 | 9.7 | 22.5 | 0.00 | 0.00 | 0.00 | 74 | 1010.8 |
| 20260502192310 | 28 | 236 | 9.7 | 22.5 | 0.00 | 0.00 | 0.00 | 76 | 1010.9 |
| 20260502191810 | 28 | 236 | 17.7 | 25.7 | 0.00 | 0.00 | 0.00 | 75 | 1010.9 |
| 20260502191310 | 28 | 198 | 12.9 | 25.7 | 0.00 | 0.00 | 0.00 | 75 | 1011.1 |
| 20260502190810 | 28 | 222 | 22.5 | 24.1 | 0.00 | 0.00 | 0.00 | 76 | 1011.1 |
| 20260502190310 | 28 | 250 | 16.1 | 24.1 | 0.00 | 0.00 | 0.00 | 76 | 1011.1 |
| 20260502185310 | 28 | 198 | 8.0 | 27.4 | 0.00 | 0.00 | 0.00 | 77 | 1011.4 |
| 20260502184810 | 28 | 248 | 17.7 | 27.4 | 0.00 | 0.00 | 0.00 | 77 | 1011.5 |
| 20260502184310 | 28 | 194 | 16.1 | 25.7 | 0.00 | 0.00 | 0.00 | 77 | 1011.5 |
| 20260502183810 | 28 | 237 | 20.9 | 25.7 | 0.00 | 0.00 | 0.00 | 78 | 1011.5 |
| 20260502183310 | 28 | 228 | 11.3 | 22.5 | 0.00 | 0.00 | 0.00 | 78 | 1011.6 |
| 20260502181810 | 28 | 240 | 6.4 | 25.7 | 0.00 | 0.00 | 0.00 | 78 | 1011.8 |
| 20260502181310 | 28 | 227 | 14.5 | 27.4 | 0.00 | 0.00 | 0.00 | 78 | 1011.8 |
| 20260502180810 | 28 | 239 | 17.7 | 27.4 | 0.00 | 0.00 | 0.00 | 79 | 1011.8 |
| 20260502180310 | 28 | 243 | 12.9 | 24.1 | 0.00 | 0.00 | 0.00 | 79 | 1011.8 |
| 20260502170311 | 28 | 250 | 17.7 | 25.7 | 0.00 | 0.00 | 0.00 | 80 | 1012.1 |
| 20260502164309 | 28 | 244 | 16.1 | 33.8 | 0.00 | 0.00 | 0.00 | 80 | 1012.0 |
| 20260502163809 | 28 | 234 | 14.5 | 33.8 | 0.00 | 0.00 | 0.00 | 80 | 1012.1 |
| 20260502163309 | 28 | 242 | 14.5 | 29.0 | 0.00 | 0.00 | 0.00 | 81 | 1012.1 |
| 20260502162810 | 28 | 238 | 24.1 | 29.0 | 0.00 | 0.00 | 0.00 | 81 | 1012.0 |
| 20260502161809 | 28 | 259 | 16.1 | 30.6 | 0.00 | 0.00 | 0.00 | 81 | 1012.0 |
| 20260502161309 | 28 | 182 | 11.3 | 27.4 | 0.00 | 0.00 | 0.00 | 80 | 1012.0 |
| 20260502160809 | 28 | 252 | 11.3 | 25.7 | 0.00 | 0.00 | 0.00 | 81 | 1011.9 |
| 20260502152309 | 28 | 181 | 14.5 | 27.4 | 0.00 | 0.00 | 0.00 | 82 | 1011.7 |
| 20260502151809 | 28 | 222 | 9.7 | 24.1 | 0.00 | 0.00 | 0.00 | 82 | 1011.7 |
| 20260502151309 | 28 | 223 | 11.3 | 24.1 | 0.00 | 0.00 | 0.00 | 82 | 1011.6 |
| 20260502150809 | 28 | 194 | 17.7 | 24.1 | 0.00 | 0.00 | 0.00 | 82 | 1011.7 |
| 20260502150309 | 28 | 250 | 19.3 | 24.1 | 0.00 | 0.00 | 0.00 | 81 | 1011.6 |
| 20260502130309 | 26 | 198 | 14.5 | 19.3 | 0.00 | 0.00 | 0.00 | 87 | 1011.0 |
| 20260502123308 | 26 | 174 | 16.1 | 19.3 | 0.00 | 0.00 | 0.00 | 87 | 1010.9 |
| 20260502122809 | 26 | 172 | 11.3 | 17.7 | 0.00 | 0.00 | 0.00 | 88 | 1010.9 |
| 20260502122308 | 26 | 203 | 8.0 | 20.9 | 0.00 | 0.00 | 0.00 | 89 | 1010.8 |
| 20260502121809 | 25 | 220 | 8.0 | 20.9 | 0.00 | 0.00 | 0.00 | 90 | 1010.8 |
| 20260502121309 | 25 | 217 | 11.3 | 12.9 | 0.00 | 0.00 | 0.00 | 91 | 1010.7 |
| 20260502120808 | 24 | 133 | 0.0 | 9.7 | 0.00 | 0.00 | 0.00 | 90 | 1010.8 |
| 20260502120308 | 23 | 128 | 4.8 | 6.4 | 0.00 | 0.00 | 0.00 | 90 | 1010.8 |
| 20260502115808 | 23 | 112 | 3.2 | 6.4 | 0.00 | 0.00 | 0.00 | 90 | 1010.8 |
| 20260502115308 | 23 | 132 | 3.2 | 6.4 | 0.00 | 0.00 | 0.00 | 90 | 1010.8 |
| 20260502114808 | 23 | 121 | 3.2 | 6.4 | 0.00 | 0.00 | 0.00 | 90 | 1010.7 |
| 20260502114308 | 23 | 146 | 0.0 | 6.4 | 0.00 | 0.00 | 0.00 | 90 | 1010.7 |
| 20260502113808 | 23 | 108 | 1.6 | 4.8 | 0.00 | 0.00 | 0.00 | 90 | 1010.7 |
| 20260502113308 | 23 | 127 | 4.8 | 4.8 | 0.00 | 0.00 | 0.00 | 90 | 1010.7 |
| 20260502112808 | 23 | 128 | 3.2 | 8.0 | 0.00 | 0.00 | 0.00 | 90 | 1010.7 |
| 20260502112308 | 23 | 103 | 3.2 | 8.0 | 0.00 | 0.00 | 0.00 | 90 | 1010.8 |
| 20260502111808 | 23 | 118 | 3.2 | 6.4 | 0.00 | 0.00 | 0.00 | 90 | 1010.8 |
| 20260502111308 | 23 | 105 | 0.0 | 4.8 | 0.00 | 0.00 | 0.00 | 90 | 1010.9 |
| 20260502110308 | 23 | 136 | 1.6 | 6.4 | 0.00 | 0.00 | 0.00 | 90 | 1010.7 |
| 20260502105308 | 23 | 139 | 0.0 | 0.0 | 0.00 | 0.00 | 0.00 | 90 | 1010.8 |
| 20260502104308 | 23 | 126 | 0.0 | 4.8 | 0.00 | 0.00 | 0.00 | 90 | 1010.7 |
| 20260502103808 | 23 | 123 | 0.0 | 4.8 | 0.00 | 0.00 | 0.00 | 90 | 1010.8 |
| 20260502103308 | 23 | 111 | 0.0 | 4.8 | 0.00 | 0.00 | 0.00 | 89 | 1010.6 |
| 20260502102808 | 22 | 128 | 3.2 | 4.8 | 0.00 | 0.00 | 0.00 | 89 | 1010.6 |
| 20260502102308 | 22 | 126 | 0.0 | 4.8 | 0.00 | 0.00 | 0.00 | 89 | 1010.7 |
| 20260502101808 | 22 | 149 | 0.0 | 6.4 | 0.00 | 0.00 | 0.00 | 89 | 1010.6 |
| 20260502100808 | 22 | 126 | 3.2 | 6.4 | 0.00 | 0.00 | 0.00 | 89 | 1010.7 |
| 20260502100308 | 22 | 146 | 3.2 | 6.4 | 0.00 | 0.00 | 0.00 | 89 | 1010.8 |
| 20260502091307 | 22 | 120 | 0.0 | 6.4 | 0.00 | 0.00 | 0.00 | 88 | 1011.0 |
| 20260502090808 | 23 | 130 | 3.2 | 6.4 | 0.00 | 0.00 | 0.00 | 88 | 1011.0 |
| 20260502090308 | 23 | 149 | 3.2 | 4.8 | 0.00 | 0.00 | 0.00 | 87 | 1011.0 |
| 20260502071307 | 23 | 329 | 0.0 | 0.0 | 0.00 | 0.00 | 0.00 | 86 | 1011.0 |
| 20260502070807 | 23 | 329 | 0.0 | 0.0 | 0.00 | 0.00 | 0.00 | 86 | 1011.0 |
| 20260502070307 | 23 | 329 | 0.0 | 0.0 | 0.00 | 0.00 | 0.00 | 86 | 1011.0 |
| 20260502065807 | 23 | 329 | 0.0 | 0.0 | 0.00 | 0.00 | 0.00 | 86 | 1011.1 |
| 20260502065307 | 23 | 329 | 0.0 | 0.0 | 0.00 | 0.00 | 0.00 | 85 | 1011.0 |
| 20260502064807 | 23 | 329 | 0.0 | 0.0 | 0.00 | 0.00 | 0.00 | 85 | 1011.0 |
| 20260502063807 | 23 | 329 | 0.0 | 0.0 | 0.00 | 0.00 | 0.00 | 85 | 1011.1 |
| 20260502063307 | 23 | 329 | 0.0 | 0.0 | 0.00 | 0.00 | 0.00 | 84 | 1011.1 |
| 20260502062807 | 23 | 329 | 0.0 | 0.0 | 0.00 | 0.00 | 0.00 | 85 | 1011.0 |
| 20260502062307 | 23 | 329 | 0.0 | 0.0 | 0.00 | 0.00 | 0.00 | 84 | 1011.0 |
| 20260502061807 | 23 | 329 | 0.0 | 0.0 | 0.00 | 0.00 | 0.00 | 84 | 1011.0 |
| 20260502061307 | 23 | 329 | 0.0 | 0.0 | 0.00 | 0.00 | 0.00 | 84 | 1011.0 |
| 20260502060307 | 23 | 329 | 0.0 | 0.0 | 0.00 | 0.00 | 0.00 | 83 | 1011.1 |
| 20260502055807 | 23 | 329 | 0.0 | 0.0 | 0.00 | 0.00 | 0.00 | 83 | 1011.2 |
| 20260502055307 | 23 | 329 | 0.0 | 0.0 | 0.00 | 0.00 | 0.00 | 82 | 1011.3 |
| 20260502054806 | 23 | 329 | 0.0 | 0.0 | 0.00 | 0.00 | 0.00 | 82 | 1011.3 |
| 20260502054307 | 23 | 329 | 0.0 | 0.0 | 0.00 | 0.00 | 0.00 | 82 | 1011.4 |
| 20260502053806 | 24 | 329 | 0.0 | 0.0 | 0.00 | 0.00 | 0.00 | 82 | 1011.4 |
| 20260502053307 | 24 | 329 | 0.0 | 0.0 | 0.00 | 0.00 | 0.00 | 82 | 1011.4 |
| 20260502052806 | 24 | 329 | 0.0 | 0.0 | 0.00 | 0.00 | 0.00 | 81 | 1011.5 |
| 20260502052307 | 24 | 329 | 0.0 | 0.0 | 0.00 | 0.00 | 0.00 | 81 | 1011.5 |
| 20260502051806 | 24 | 329 | 0.0 | 0.0 | 0.00 | 0.00 | 0.00 | 81 | 1011.6 |
| 20260502050806 | 24 | 329 | 0.0 | 3.2 | 0.00 | 0.00 | 0.00 | 80 | 1011.7 |
| 20260502050307 | 24 | 329 | 1.6 | 3.2 | 0.00 | 0.00 | 0.00 | 80 | 1011.7 |
| 20260502045807 | 24 | 329 | 0.0 | 3.2 | 0.00 | 0.00 | 0.00 | 80 | 1011.7 |
| 20260502045307 | 24 | 279 | 0.0 | 1.6 | 0.00 | 0.00 | 0.00 | 80 | 1011.8 |
| 20260502044807 | 25 | 267 | 0.0 | 1.6 | 0.00 | 0.00 | 0.00 | 79 | 1011.7 |
| 20260502044306 | 25 | 265 | 0.0 | 0.0 | 0.00 | 0.00 | 0.00 | 79 | 1011.6 |
| 20260502043806 | 25 | 261 | 0.0 | 0.0 | 0.00 | 0.00 | 0.00 | 79 | 1011.6 |
| 20260502043306 | 25 | 259 | 0.0 | 4.8 | 0.00 | 0.00 | 0.00 | 79 | 1011.6 |
| 20260502042806 | 25 | 259 | 0.0 | 4.8 | 0.00 | 0.00 | 0.00 | 78 | 1011.7 |
| 20260502042306 | 25 | 259 | 1.6 | 6.4 | 0.00 | 0.00 | 0.00 | 79 | 1011.7 |
| 20260502041806 | 25 | 254 | 3.2 | 6.4 | 0.00 | 0.00 | 0.00 | 78 | 1011.7 |
| 20260502041306 | 25 | 268 | 0.0 | 3.2 | 0.00 | 0.00 | 0.00 | 79 | 1011.7 |
| 20260502040806 | 25 | 263 | 1.6 | 6.4 | 0.00 | 0.00 | 0.00 | 79 | 1011.6 |
| 20260502040306 | 25 | 252 | 0.0 | 6.4 | 0.00 | 0.00 | 0.00 | 79 | 1011.7 |
| 20260502035806 | 25 | 238 | 0.0 | 6.4 | 0.00 | 0.00 | 0.00 | 79 | 1011.7 |
| 20260502035307 | 25 | 246 | 3.2 | 6.4 | 0.00 | 0.00 | 0.00 | 78 | 1011.7 |
| 20260502034806 | 25 | 254 | 0.0 | 4.8 | 0.00 | 0.00 | 0.00 | 79 | 1011.8 |
| 20260502034306 | 25 | 236 | 1.6 | 4.8 | 0.00 | 0.00 | 0.00 | 79 | 1011.7 |